Terminal Aerodrome Forecast
Issued by NWS Des Moines, IA

Home | Current Version | Previous Version | Text Only | Print | Product List | Glossary On
Versions: 1 2 3 4 5 6 7 8 9 10 11 12 13 14 15 16 17 18 19 20 21 22 23 24 25 26
000
FTUS43 KDMX 051737
TAFDSM
TAF
KDSM 051737Z 0518/0618 18016G22KT P6SM BKN120
     FM060000 15011KT P6SM BKN060
     FM060600 28011KT P6SM VCSH OVC025
     FM061000 31012KT P6SM SCT025 OVC050
     FM061600 29017G26KT P6SM SCT030 BKN200=

USA.gov is the U.S. government's official web portal to all federal, state and local government web resources and services.